Weather at Flying H Airport

Public forecast

Using degrees Fahrenheit for public forecast. Weather courtesy of forecast.io.

Closest aviation weather report (METAR) to Flying H Airport

Closest report is Albuquerque International Sunport, 31.1 nm (57.7 km) NNE.

2024/07/13 00:52 (retrieved 26 minutes ago)

KABQ 130052Z 18006KT 10SM VCTS -RA SCT085CB BKN110 BKN250 26/14 A3023 RMK AO2 PK WND 08039/2356 RAB2358 TSB00E50 SLP152 OCNL LTGICCG VC SE-SW TS VC SE-SW MOV SW P0008 T02560139

Closest aviation forecast (TAF) to Flying H Airport

Closest forecast is Biggs Army Air Field (Fort Bliss), 162.8 nm (301.5 km) S.

2024/07/12 19:53 (retrieved 5 hours ago)

TAF KBIF 121900Z 1219/1401 09010G20KT 9999 SKC 510606 QNH3005INS BECMG 1303/1304 VRB06KT 9999 SKC QNH3014INS BECMG 1320/1321 10010G15KT 9999 SKC 510606 QNH3009INS TX34/1320Z TN24/1311Z